Conditions Actuelle
Pluie



Pression
30.06 (inHG) - 1017.92 (mb)
Visibilité

10.0 (km) - 6.2 (miles)
   Température
18  °C
Température
16  °C
Point de Rosée
88  %
 Humidité
   Vitesse du Vent
21  km/h
11  kts
13  mph
5.8  m/s
   Direction du Vent
N
45°
E
90°
135°
S
180°
225°
O
270°
315°
 150°

Sud Sud
Est
   Données D'Aéroport
LFBU
Angoulême-Brie-Champniers Airport
Metar :LFBU 190430Z AUTO 15011KT 070V150 9999 -RA FEW011/// OVC100/// ///CB 18/16 Q1018
19-05-2022 06:30
   Informations de métar brut
Le METAR brut est le format le plus courant au monde pour la transmission de données météorologiques d'observation. Il est hautement standardisé par l’Organisation de l’aviation civile internationale (OACI), ce qui lui permet d’être compris dans la plupart des pays du monde.
   API Information
Données fournies par
https://www.checkwx.com/weather/LFBU

Météo aéronautique fournissant des rapports météorologiques METAR, TAF, AIRMET, SIGMET et OUTLOOK
   © Info
CSS/SVG/PHP les scripts ont été développés pa weather34.com pour une utilisation dans le modèle weather34 © 2015-2022

Informations sur le guide fournies par Metar-Wikipedia